Time;durP1;ratioP1;P1;durP2;ratioP2;P2;SDS_P1;SDS_P2;PMS_P1;PMS_P2;Temp;Humidity;BMP_temperature;BMP_pressure;BME280_temperature;BME280_humidity;BME280_pressure;Samples;Min_cycle;Max_cycle;Signal;HPM_P1;HPM_P2
2021/08/28 00:00:25;;;;;;;7.43;3.38;;;;;;;21.18;55.43;100960.19;5033502;28;20046;-74
2021/08/28 00:02:52;;;;;;;4.20;2.95;;;;;;;21.17;54.91;100963.00;5033520;28;20052;-79
2021/08/28 00:05:19;;;;;;;5.15;3.00;;;;;;;21.12;55.04;100963.47;5033585;28;20053;-79
2021/08/28 00:07:46;;;;;;;4.80;3.00;;;;;;;21.09;54.52;100969.09;5034827;28;20128;-76
2021/08/28 00:10:13;;;;;;;6.63;3.30;;;;;;;21.08;54.80;100962.09;5051866;28;20052;-72
2021/08/28 00:12:39;;;;;;;5.65;2.90;;;;;;;21.08;54.95;100962.09;5033326;28;20103;-78
2021/08/28 00:15:08;;;;;;;5.35;3.53;;;;;;;21.08;54.38;100958.56;5033348;28;20385;-70
2021/08/28 00:17:36;;;;;;;5.80;3.63;;;;;;;21.06;54.44;100966.72;5033055;28;20049;-79
2021/08/28 00:20:04;;;;;;;5.82;3.70;;;;;;;21.07;54.84;100960.41;5033337;28;20089;-71
2021/08/28 00:22:31;;;;;;;6.90;3.38;;;;;;;21.10;54.81;100962.75;5033260;28;20512;-78
2021/08/28 00:24:57;;;;;;;8.80;3.40;;;;;;;21.12;54.74;100965.28;5033245;28;20045;-79
2021/08/28 00:27:24;;;;;;;7.95;3.78;;;;;;;21.09;55.00;100965.59;5033234;28;20122;-79
2021/08/28 00:29:50;;;;;;;7.97;3.38;;;;;;;20.97;55.32;100957.78;5033094;28;20099;-75
2021/08/28 00:32:17;;;;;;;6.20;3.08;;;;;;;20.89;56.23;100965.72;5032976;28;20099;-71
2021/08/28 00:34:44;;;;;;;4.50;2.83;;;;;;;20.86;56.16;100968.66;5033145;28;20072;-78
2021/08/28 00:37:10;;;;;;;7.00;3.08;;;;;;;20.88;56.36;100967.53;5032894;28;20049;-71
2021/08/28 00:39:37;;;;;;;7.38;3.50;;;;;;;20.87;56.68;100955.19;5032802;28;20088;-71
2021/08/28 00:42:03;;;;;;;7.15;3.53;;;;;;;20.88;56.28;100969.38;5033002;28;20050;-78
2021/08/28 00:44:30;;;;;;;5.60;3.20;;;;;;;20.88;55.71;100967.53;5032843;28;20072;-74
2021/08/28 00:46:57;;;;;;;6.88;3.58;;;;;;;20.87;55.79;100965.88;5032845;28;20559;-78
2021/08/28 00:49:24;;;;;;;5.57;3.55;;;;;;;20.84;55.66;100966.16;5034937;28;20050;-71
2021/08/28 00:51:51;;;;;;;6.45;3.60;;;;;;;20.85;55.50;100964.34;5052677;28;20589;-79
2021/08/28 00:54:17;;;;;;;4.85;3.10;;;;;;;20.86;55.04;100969.53;5052359;28;20044;-79
2021/08/28 00:56:44;;;;;;;8.32;3.88;;;;;;;20.86;55.05;100963.31;5052597;28;20114;-71
2021/08/28 00:59:13;;;;;;;5.15;3.72;;;;;;;20.86;54.89;100960.66;5052043;28;20102;-75
2021/08/28 01:01:41;;;;;;;5.13;3.60;;;;;;;20.83;54.79;100966.31;5052724;28;20467;-78
2021/08/28 01:04:15;;;;;;;8.38;3.70;;;;;;;20.81;55.19;100955.78;5034447;28;20054;-79
2021/08/28 01:06:49;;;;;;;5.40;3.58;;;;;;;20.81;55.17;100950.47;5032508;28;20453;-79
2021/08/28 01:09:21;;;;;;;5.10;3.70;;;;;;;20.82;54.98;100940.63;5050236;28;20049;-78
2021/08/28 01:12:18;;;;;;;6.07;4.35;;;;;;;20.82;55.14;100936.13;5052499;28;20455;-74
2021/08/28 01:14:50;;;;;;;7.93;5.03;;;;;;;20.82;55.56;100943.28;5052301;28;20045;-79
2021/08/28 01:17:19;;;;;;;6.97;4.95;;;;;;;20.84;55.31;100941.31;5052267;28;20473;-73
2021/08/28 01:20:06;;;;;;;7.78;5.53;;;;;;;20.85;55.39;100938.50;5052253;28;20455;-79
2021/08/28 01:22:39;;;;;;;8.68;5.40;;;;;;;20.84;55.68;100936.81;5052661;28;20049;-79
2021/08/28 01:25:08;;;;;;;7.45;4.90;;;;;;;20.86;55.48;100936.66;5052261;28;20057;-79
2021/08/28 01:27:49;;;;;;;6.80;4.50;;;;;;;20.84;55.51;100936.81;5052145;28;20045;-71
2021/08/28 01:30:16;;;;;;;8.02;4.45;;;;;;;20.85;55.24;100932.34;5052252;28;20076;-71
2021/08/28 01:32:45;;;;;;;6.03;4.43;;;;;;;20.83;55.37;100934.31;5042980;28;20437;-79
2021/08/28 01:35:13;;;;;;;7.07;4.70;;;;;;;20.83;55.32;100936.97;5032250;28;20095;-79
2021/08/28 01:37:42;;;;;;;6.60;3.95;;;;;;;20.77;55.17;100935.72;5032239;28;20053;-79
2021/08/28 01:40:11;;;;;;;6.35;3.97;;;;;;;20.74;54.92;100940.53;5032111;28;20095;-79
2021/08/28 01:42:38;;;;;;;5.50;3.83;;;;;;;20.74;54.94;100941.38;5032323;28;20046;-78
2021/08/28 01:45:11;;;;;;;6.35;3.60;;;;;;;20.73;54.78;100944.19;5032289;28;20049;-71
2021/08/28 01:47:40;;;;;;;5.78;3.63;;;;;;;20.72;54.81;100940.66;5032162;28;20041;-79
2021/08/28 01:50:11;;;;;;;4.07;3.00;;;;;;;20.75;54.50;100944.84;5032057;28;20053;-71
2021/08/28 01:52:38;;;;;;;6.55;3.42;;;;;;;20.73;54.13;100950.34;5032114;28;20049;-72
2021/08/28 01:55:06;;;;;;;5.13;3.28;;;;;;;20.72;54.48;100946.00;5031931;28;20050;-79
2021/08/28 01:57:32;;;;;;;5.57;3.42;;;;;;;20.71;54.37;100950.50;5032113;28;20103;-79
2021/08/28 02:00:01;;;;;;;7.07;3.58;;;;;;;20.72;54.16;100943.31;5031825;28;20053;-71
2021/08/28 02:02:27;;;;;;;4.88;3.35;;;;;;;20.68;54.20;100952.59;5032210;28;20046;-78
2021/08/28 02:04:55;;;;;;;4.82;3.00;;;;;;;20.67;54.04;100948.25;5032055;28;20045;-79
2021/08/28 02:07:30;;;;;;;6.13;3.25;;;;;;;20.67;54.07;100949.09;5032142;28;20096;-71
2021/08/28 02:10:08;;;;;;;;;;;;;;;20.62;54.57;100947.84;5033509;28;20041;-78
2021/08/28 02:12:39;;;;;;;4.43;3.00;;;;;;;20.64;54.17;100941.38;5035750;28;19921;-78
2021/08/28 02:15:09;;;;;;;5.00;2.83;;;;;;;20.66;54.58;100938.59;5035637;28;20485;-79
2021/08/28 02:17:41;;;;;;;4.32;3.08;;;;;;;20.66;54.22;100939.41;5035974;28;20383;-79
2021/08/28 02:20:10;;;;;;;4.47;2.85;;;;;;;20.67;54.35;100940.25;5035905;28;20049;-79
2021/08/28 02:22:42;;;;;;;8.50;3.53;;;;;;;20.65;54.13;100937.72;5034641;28;20486;-71
2021/08/28 02:25:28;;;;;;;4.03;2.78;;;;;;;20.66;54.73;100939.41;5035495;28;20449;-72
2021/08/28 02:28:03;;;;;;;3.70;2.55;;;;;;;20.65;54.42;100931.56;5035898;28;20045;-76
2021/08/28 02:30:31;;;;;;;7.57;3.00;;;;;;;20.64;54.31;100936.03;5036487;28;20408;-79
2021/08/28 02:33:02;;;;;;;4.72;2.92;;;;;;;20.64;54.33;100937.88;5035972;28;20041;-71
2021/08/28 02:35:30;;;;;;;4.30;3.17;;;;;;;20.63;54.44;100933.53;5036276;28;20072;-79
2021/08/28 02:37:58;;;;;;;6.13;2.83;;;;;;;20.60;54.75;100940.00;5036436;28;20057;-76
2021/08/28 02:40:27;;;;;;;4.15;2.53;;;;;;;20.60;54.45;100940.00;5037763;28;20127;-80
2021/08/28 02:42:54;;;;;;;3.38;2.65;;;;;;;20.59;54.31;100932.97;5037382;28;20092;-79
2021/08/28 02:45:26;;;;;;;4.80;2.72;;;;;;;20.59;54.24;100942.81;5036793;28;20093;-79
2021/08/28 02:47:53;;;;;;;4.18;2.50;;;;;;;20.54;54.52;100930.78;5037016;28;20057;-79
2021/08/28 02:50:24;;;;;;;5.28;2.40;;;;;;;20.55;54.16;100924.44;5036845;28;20053;-79
2021/08/28 02:52:52;;;;;;;3.42;2.72;;;;;;;20.58;53.90;100925.13;5036194;28;20046;-76
2021/08/28 02:55:19;;;;;;;4.18;2.50;;;;;;;20.58;53.88;100922.47;5035728;28;20100;-77
2021/08/28 02:57:50;;;;;;;5.82;2.65;;;;;;;20.59;53.99;100922.31;5035950;28;20041;-79
2021/08/28 03:00:18;;;;;;;4.53;2.40;;;;;;;20.56;53.84;100917.28;5036447;28;20057;-76
2021/08/28 03:02:46;;;;;;;4.25;2.60;;;;;;;20.56;53.90;100909.28;5056592;28;20048;-78
2021/08/28 03:05:14;;;;;;;7.00;2.42;;;;;;;20.54;54.08;100906.78;5053386;28;20056;-79
2021/08/28 03:07:42;;;;;;;8.05;3.00;;;;;;;20.51;53.87;100896.41;5054102;28;20045;-71
2021/08/28 03:10:09;;;;;;;4.90;2.50;;;;;;;20.54;54.21;100897.94;5054070;28;20081;-71
2021/08/28 03:12:38;;;;;;;4.65;2.60;;;;;;;20.54;54.49;100900.59;5054385;28;20421;-71
2021/08/28 03:15:06;;;;;;;3.97;2.83;;;;;;;20.55;54.15;100908.44;5054998;28;20045;-78
2021/08/28 03:17:35;;;;;;;4.03;2.70;;;;;;;20.56;54.19;100914.63;5035988;28;20544;-76
2021/08/28 03:20:03;;;;;;;4.82;3.13;;;;;;;20.54;54.37;100909.44;5034350;28;20230;-77
2021/08/28 03:22:31;;;;;;;3.25;2.47;;;;;;;20.52;54.17;100911.41;5035796;28;20111;-78
2021/08/28 03:24:58;;;;;;;5.97;2.65;;;;;;;20.53;54.02;100909.56;5037723;28;20054;-76
2021/08/28 03:27:25;;;;;;;4.88;2.63;;;;;;;20.52;54.25;100910.59;5035760;28;20452;-78
2021/08/28 03:29:53;;;;;;;3.83;2.58;;;;;;;20.52;54.12;100911.41;5033991;28;20108;-75
2021/08/28 03:32:20;;;;;;;4.88;3.22;;;;;;;20.51;54.29;100907.06;5033032;28;20045;-70
2021/08/28 03:34:47;;;;;;;4.10;2.65;;;;;;;20.53;54.16;100901.56;5033760;28;20561;-77
2021/08/28 03:37:14;;;;;;;4.70;2.72;;;;;;;20.51;54.48;100907.06;5033377;28;20046;-78
2021/08/28 03:39:42;;;;;;;3.70;2.60;;;;;;;20.51;54.49;100912.41;5032690;28;20049;-78
2021/08/28 03:42:09;;;;;;;3.85;2.75;;;;;;;20.51;54.44;100916.91;5032884;28;20057;-71
2021/08/28 03:44:39;;;;;;;2.97;2.42;;;;;;;20.52;54.51;100923.91;5052421;28;20095;-78
2021/08/28 03:47:07;;;;;;;4.90;2.90;;;;;;;20.48;54.78;100935.84;5054064;28;20044;-76
2021/08/28 03:49:34;;;;;;;3.58;2.67;;;;;;;20.48;55.44;100930.50;5055253;28;20056;-75
2021/08/28 03:52:01;;;;;;;4.15;2.40;;;;;;;20.49;55.51;100926.88;5054989;28;20052;-77
2021/08/28 03:54:28;;;;;;;4.28;2.72;;;;;;;20.47;56.06;100919.00;5054077;28;20453;-74
2021/08/28 03:56:55;;;;;;;5.32;2.42;;;;;;;20.45;56.37;100915.66;5054710;28;20045;-74
2021/08/28 03:59:22;;;;;;;5.50;2.38;;;;;;;20.47;56.05;100919.00;5046094;28;20045;-71
2021/08/28 04:01:49;;;;;;;2.55;2.10;;;;;;;20.48;56.25;100920.69;5034588;28;20401;-78
2021/08/28 04:04:16;;;;;;;4.72;2.25;;;;;;;20.51;55.89;100927.56;5033548;28;20073;-71
2021/08/28 04:06:42;;;;;;;4.38;2.53;;;;;;;20.49;56.10;100927.72;5032999;28;20045;-71
2021/08/28 04:09:09;;;;;;;3.40;2.15;;;;;;;20.50;55.52;100926.72;5033619;28;20076;-71
2021/08/28 04:11:36;;;;;;;2.42;2.20;;;;;;;20.49;55.49;100926.88;5032647;28;20053;-79
2021/08/28 04:14:02;;;;;;;4.88;2.20;;;;;;;20.51;55.72;100936.38;5032922;28;20045;-75
2021/08/28 04:16:29;;;;;;;5.15;2.35;;;;;;;20.51;55.37;100935.56;5033822;28;20468;-78
2021/08/28 04:18:56;;;;;;;4.07;2.28;;;;;;;20.50;55.57;100934.69;5034597;28;20548;-71
2021/08/28 04:21:22;;;;;;;5.20;2.22;;;;;;;20.51;55.67;100938.22;5032429;28;20100;-77
2021/08/28 04:23:49;;;;;;;5.32;2.42;;;;;;;20.47;55.87;100940.34;5031930;28;20045;-76
2021/08/28 04:26:16;;;;;;;3.05;2.10;;;;;;;20.45;56.37;100952.13;5032801;28;20486;-72
2021/08/28 04:28:43;;;;;;;3.75;2.00;;;;;;;20.38;56.39;100963.38;5033508;28;20049;-71
2021/08/28 04:31:09;;;;;;;4.75;2.00;;;;;;;20.30;56.82;100965.09;5032023;28;20049;-78
2021/08/28 04:33:36;;;;;;;3.72;2.08;;;;;;;20.33;56.42;100965.66;5030609;28;20049;-71
2021/08/28 04:36:03;;;;;;;3.78;2.10;;;;;;;20.35;56.50;100961.03;5031381;28;20045;-72
2021/08/28 04:38:30;;;;;;;2.78;1.80;;;;;;;20.34;56.14;100959.34;5030906;28;20107;-78
2021/08/28 04:40:57;;;;;;;4.25;1.55;;;;;;;20.34;56.19;100961.16;5031020;28;20624;-74
2021/08/28 04:43:23;;;;;;;2.83;1.33;;;;;;;20.32;56.17;100957.81;5030659;28;20045;-78
2021/08/28 04:45:50;;;;;;;3.90;1.52;;;;;;;20.31;56.16;100956.94;5030343;28;20465;-71
2021/08/28 04:48:16;;;;;;;2.42;1.60;;;;;;;20.32;56.46;100963.13;5050586;28;20469;-75
2021/08/28 04:50:46;;;;;;;5.88;1.65;;;;;;;20.31;56.35;100961.44;5050357;28;20049;-78
2021/08/28 04:53:13;;;;;;;3.47;1.70;;;;;;;20.27;56.94;100965.41;5050735;28;20110;-72
2021/08/28 04:55:40;;;;;;;4.68;1.67;;;;;;;20.26;57.49;100972.53;5049810;28;20460;-73
2021/08/28 04:58:06;;;;;;;1.95;1.55;;;;;;;20.19;58.11;100974.94;5050083;28;20455;-76
2021/08/28 05:00:33;;;;;;;5.28;2.00;;;;;;;20.17;58.50;100966.25;5050105;28;20057;-72
2021/08/28 05:03:00;;;;;;;3.45;1.80;;;;;;;20.14;59.13;100969.22;5050675;28;20636;-79
2021/08/28 05:05:27;;;;;;;4.72;1.63;;;;;;;20.11;59.54;100973.97;5050047;28;20045;-75
2021/08/28 05:07:53;;;;;;;2.13;1.42;;;;;;;20.10;59.26;100982.94;5049914;28;20099;-75
2021/08/28 05:10:21;;;;;;;3.20;1.75;;;;;;;20.11;59.78;100987.31;5050353;28;20041;-79
2021/08/28 05:12:47;;;;;;;2.65;1.70;;;;;;;20.09;60.26;100989.25;5035661;28;20405;-79
2021/08/28 05:15:14;;;;;;;3.65;1.90;;;;;;;20.07;60.38;101000.06;5030146;28;20045;-79
2021/08/28 05:17:41;;;;;;;3.58;2.58;;;;;;;20.08;60.23;101000.94;5030017;28;20042;-78
2021/08/28 05:20:08;;;;;;;2.67;1.65;;;;;;;20.08;60.59;101006.25;5029866;28;20045;-79
2021/08/28 05:22:35;;;;;;;3.22;1.80;;;;;;;20.09;60.64;101008.75;5029606;28;20041;-79
2021/08/28 05:25:02;;;;;;;3.75;1.80;;;;;;;20.09;60.89;101015.91;5029576;28;20095;-78
2021/08/28 05:27:29;;;;;;;2.50;1.63;;;;;;;20.10;60.58;101020.25;5029545;28;20045;-74
2021/08/28 05:29:56;;;;;;;3.40;1.65;;;;;;;20.11;60.43;101024.59;5029038;28;20046;-72
2021/08/28 05:32:22;;;;;;;3.95;1.88;;;;;;;20.09;60.84;101026.56;5029163;28;20065;-79
2021/08/28 05:34:49;;;;;;;3.22;1.95;;;;;;;20.08;61.22;101025.72;5028851;28;20052;-72
2021/08/28 05:37:16;;;;;;;3.28;1.92;;;;;;;20.08;61.27;101025.72;5028793;28;20049;-74
2021/08/28 05:39:42;;;;;;;4.25;1.92;;;;;;;20.10;61.73;101030.91;5029240;28;20513;-71
2021/08/28 05:42:09;;;;;;;4.18;1.98;;;;;;;20.06;62.13;101017.88;5028984;28;20453;-72
2021/08/28 05:44:35;;;;;;;3.17;1.65;;;;;;;20.06;62.20;101025.03;5030633;28;20100;-80
2021/08/28 05:47:02;;;;;;;3.08;1.80;;;;;;;20.05;62.54;101026.03;5032869;28;20069;-80
2021/08/28 05:49:29;;;;;;;3.13;2.00;;;;;;;20.06;62.35;101027.69;5032909;28;20053;-72
2021/08/28 05:51:56;;;;;;;4.15;2.00;;;;;;;20.05;62.41;101032.19;5032776;28;20076;-72
2021/08/28 05:54:22;;;;;;;2.35;1.77;;;;;;;20.05;62.75;101034.84;5032679;28;20073;-80
2021/08/28 05:56:49;;;;;;;3.53;2.05;;;;;;;20.01;62.92;101022.81;5032826;28;20049;-80
2021/08/28 05:59:15;;;;;;;3.67;1.75;;;;;;;19.97;63.32;101020.56;5032816;28;20049;-80
2021/08/28 06:01:42;;;;;;;4.40;1.90;;;;;;;19.92;63.36;101015.63;5033142;28;20080;-71
2021/08/28 06:04:09;;;;;;;4.40;2.45;;;;;;;19.90;62.93;101013.13;5032506;28;20080;-78
2021/08/28 06:06:36;;;;;;;4.28;2.00;;;;;;;20.04;62.48;101016.34;5032603;28;20095;-77
2021/08/28 06:09:03;;;;;;;2.90;2.00;;;;;;;20.06;62.39;101017.88;5032502;28;20791;-74
2021/08/28 06:11:29;;;;;;;4.80;2.25;;;;;;;20.06;62.38;101025.88;5032303;28;20046;-71
2021/08/28 06:13:56;;;;;;;3.85;2.50;;;;;;;20.07;62.95;101024.03;5032188;28;20096;-77
2021/08/28 06:16:23;;;;;;;3.05;1.80;;;;;;;20.09;62.71;101027.41;5032319;28;20103;-75
2021/08/28 06:18:49;;;;;;;3.30;2.00;;;;;;;20.08;62.86;101030.22;5032319;28;20529;-72
2021/08/28 06:21:16;;;;;;;3.63;1.85;;;;;;;20.08;63.12;101039.06;5032149;28;20057;-71
2021/08/28 06:23:43;;;;;;;3.92;1.90;;;;;;;20.05;63.64;101036.69;5032175;28;20079;-72
2021/08/28 06:26:09;;;;;;;2.53;1.80;;;;;;;20.01;63.86;101028.13;5032502;28;20053;-72
2021/08/28 06:28:36;;;;;;;4.78;1.90;;;;;;;20.02;63.53;101027.16;5032837;28;20053;-72
2021/08/28 06:31:03;;;;;;;2.65;1.65;;;;;;;19.98;64.00;101019.56;5032206;28;20485;-78
2021/08/28 06:33:30;;;;;;;4.50;1.52;;;;;;;19.95;63.77;101020.69;5032470;28;20052;-78
2021/08/28 06:35:56;;;;;;;4.28;1.90;;;;;;;19.96;64.03;101014.41;5033151;28;20119;-72
2021/08/28 06:38:23;;;;;;;6.15;2.10;;;;;;;19.97;63.95;101025.88;5033807;28;20072;-78
2021/08/28 06:40:49;;;;;;;4.57;1.90;;;;;;;19.98;63.74;101024.91;5033741;28;20049;-77
2021/08/28 06:43:16;;;;;;;7.97;2.47;;;;;;;19.97;63.92;101031.22;5033041;28;20049;-78
2021/08/28 06:45:43;;;;;;;3.30;1.70;;;;;;;19.99;64.08;101032.75;5032091;28;20057;-74
2021/08/28 06:48:10;;;;;;;3.33;1.80;;;;;;;20.00;64.42;101022.94;5033180;28;20647;-72
2021/08/28 06:50:37;;;;;;;2.95;1.90;;;;;;;20.04;63.76;101030.50;5033348;28;20045;-73
2021/08/28 06:53:03;;;;;;;2.60;1.55;;;;;;;20.08;63.81;101027.56;5032735;28;20045;-77
2021/08/28 06:55:30;;;;;;;3.20;1.60;;;;;;;20.10;63.89;101028.25;5032297;28;20058;-77
2021/08/28 06:57:56;;;;;;;3.60;1.67;;;;;;;20.17;63.71;101029.38;5032938;28;20096;-76
2021/08/28 07:00:23;;;;;;;4.70;2.22;;;;;;;20.14;64.28;101021.66;5032932;28;20463;-76
2021/08/28 07:02:50;;;;;;;3.45;1.77;;;;;;;20.14;64.29;101016.34;5032011;28;20050;-72
2021/08/28 07:05:17;;;;;;;2.53;1.70;;;;;;;20.10;64.58;101007.78;5031497;28;20132;-74
2021/08/28 07:07:43;;;;;;;3.72;2.05;;;;;;;20.07;64.20;101005.38;5048967;28;20049;-76
2021/08/28 07:10:11;;;;;;;4.07;1.73;;;;;;;20.00;64.44;100991.81;5051677;28;20114;-76
2021/08/28 07:12:37;;;;;;;2.88;1.85;;;;;;;20.00;64.01;100994.47;5051222;28;20048;-72
2021/08/28 07:15:04;;;;;;;2.85;2.00;;;;;;;20.00;63.81;100998.97;5051298;28;20076;-76
2021/08/28 07:17:31;;;;;;;3.95;1.90;;;;;;;20.01;63.89;101005.97;5051156;28;20076;-75
2021/08/28 07:19:58;;;;;;;2.85;1.98;;;;;;;20.05;63.94;101023.38;5050967;28;20044;-71
2021/08/28 07:22:24;;;;;;;5.63;2.10;;;;;;;20.05;63.62;101018.88;5050930;28;20041;-75
2021/08/28 07:24:51;;;;;;;2.80;1.60;;;;;;;20.08;63.84;101014.25;5035317;28;20107;-77
2021/08/28 07:27:22;;;;;;;3.30;2.28;;;;;;;20.04;63.97;101017.19;5030982;28;20046;-76
2021/08/28 07:29:50;;;;;;;2.90;1.90;;;;;;;20.03;63.74;101015.50;5031146;28;20057;-72
2021/08/28 07:32:19;;;;;;;3.45;1.88;;;;;;;20.01;64.11;101013.94;5032406;28;20045;-66
2021/08/28 07:34:47;;;;;;;4.20;1.77;;;;;;;20.02;64.06;101024.50;5042705;28;20037;-68
2021/08/28 07:37:15;;;;;;;4.03;1.95;;;;;;;19.98;64.56;101017.75;5035876;28;20076;-68
2021/08/28 07:39:41;;;;;;;2.60;1.83;;;;;;;19.99;64.41;101021.25;5047832;28;20041;-68
2021/08/28 07:42:08;;;;;;;3.30;1.83;;;;;;;19.99;64.97;101019.44;5046680;28;20095;-68
2021/08/28 07:44:35;;;;;;;4.53;2.17;;;;;;;20.02;64.59;101026.28;5047336;28;20045;-69
2021/08/28 07:47:01;;;;;;;3.50;2.28;;;;;;;20.02;64.96;101024.50;5049798;28;20503;-69
2021/08/28 07:49:28;;;;;;;4.30;1.90;;;;;;;20.01;65.16;101022.81;5041723;28;20041;-69
2021/08/28 07:51:55;;;;;;;2.83;2.00;;;;;;;20.04;65.53;101019.84;5032339;28;20076;-68
2021/08/28 07:54:21;;;;;;;6.50;2.40;;;;;;;20.09;65.91;101026.56;5040625;28;20091;-67
2021/08/28 07:56:48;;;;;;;4.05;1.95;;;;;;;20.13;65.72;101020.81;5049185;28;20536;-71
2021/08/28 07:59:15;;;;;;;5.03;2.28;;;;;;;20.21;65.59;101020.94;5047629;28;20091;-67
2021/08/28 08:01:41;;;;;;;4.95;2.40;;;;;;;20.29;65.11;101019.38;5047651;28;20122;-66
2021/08/28 08:04:09;;;;;;;3.88;2.38;;;;;;;20.40;64.95;101021.88;5049639;28;20475;-69
2021/08/28 08:06:36;;;;;;;3.97;2.78;;;;;;;20.52;64.96;101012.72;5050092;28;20052;-69
2021/08/28 08:09:04;;;;;;;5.85;2.70;;;;;;;20.66;64.39;101013.25;5047461;28;20493;-69
2021/08/28 08:11:31;;;;;;;6.65;2.75;;;;;;;20.93;63.85;101014.28;5047393;28;20045;-76
2021/08/28 08:14:07;;;;;;;5.13;2.63;;;;;;;21.59;62.11;101001.66;5050345;28;20052;-73
2021/08/28 08:16:37;;;;;;;6.07;2.63;;;;;;;22.22;60.28;100997.97;5048875;28;20045;-73
2021/08/28 08:19:04;;;;;;;3.38;2.30;;;;;;;22.50;59.62;101000.50;5049727;28;20049;-71
2021/08/28 08:21:32;;;;;;;5.72;2.92;;;;;;;22.83;59.00;101000.66;5049522;28;20048;-72
2021/08/28 08:23:59;;;;;;;4.68;2.80;;;;;;;23.09;58.42;101002.41;5049009;28;20498;-70
2021/08/28 08:26:26;;;;;;;3.55;2.15;;;;;;;23.33;57.47;100995.47;5049039;28;20591;-70
2021/08/28 08:28:54;;;;;;;2.60;1.85;;;;;;;23.58;56.34;100997.19;5049603;28;20111;-69
2021/08/28 08:31:22;;;;;;;5.28;2.33;;;;;;;23.69;55.90;101005.88;5029349;28;20056;-74
2021/08/28 08:33:49;;;;;;;3.03;1.95;;;;;;;23.89;55.39;101001.84;5029111;28;20072;-72
2021/08/28 08:36:16;;;;;;;2.95;1.70;;;;;;;23.91;54.86;100997.22;5029988;28;20054;-72
2021/08/28 08:38:44;;;;;;;3.17;1.60;;;;;;;23.42;55.71;100999.84;5029531;28;20092;-78
2021/08/28 08:41:12;;;;;;;3.65;1.38;;;;;;;23.12;55.99;101002.06;5029055;28;20452;-73
2021/08/28 08:43:40;;;;;;;2.33;1.55;;;;;;;23.01;55.92;101005.91;5029586;28;20088;-72
2021/08/28 08:46:08;;;;;;;2.47;1.58;;;;;;;22.99;55.45;101016.78;5029084;28;20052;-72
2021/08/28 08:48:36;;;;;;;2.47;1.40;;;;;;;22.90;55.42;101011.56;5030265;28;20136;-70
2021/08/28 08:51:03;;;;;;;1.90;1.50;;;;;;;23.02;54.59;101012.09;5046618;28;20115;-70
2021/08/28 08:53:30;;;;;;;2.33;1.55;;;;;;;23.11;54.16;101011.97;5045741;28;20048;-72
2021/08/28 08:55:59;;;;;;;2.40;1.45;;;;;;;23.59;52.92;101006.91;5048162;28;20044;-73
2021/08/28 08:58:26;;;;;;;2.95;1.70;;;;;;;24.17;50.95;101011.41;5048480;28;20115;-77
2021/08/28 09:00:53;;;;;;;3.67;2.20;;;;;;;24.17;50.48;101011.41;5048377;28;20049;-68
2021/08/28 09:03:20;;;;;;;2.88;1.42;;;;;;;24.45;49.62;101012.72;5048919;28;20440;-69
2021/08/28 09:05:48;;;;;;;4.40;1.65;;;;;;;24.33;49.44;101016.75;5036516;28;20045;-70
2021/08/28 09:08:14;;;;;;;2.72;1.52;;;;;;;24.11;49.71;101015.59;5040131;28;20456;-71
2021/08/28 09:10:41;;;;;;;2.38;1.20;;;;;;;24.09;48.82;101010.41;5043567;28;20045;-73
2021/08/28 09:13:18;;;;;;;2.47;1.38;;;;;;;23.93;48.43;101013.13;5048680;28;20045;-70
2021/08/28 09:15:49;;;;;;;2.88;1.60;;;;;;;24.02;48.17;101009.41;5048817;28;20489;-71
2021/08/28 09:18:30;;;;;;;3.17;1.20;;;;;;;24.26;47.12;101005.88;5048572;28;20049;-71
2021/08/28 09:20:58;;;;;;;2.10;1.20;;;;;;;24.56;46.28;101011.50;5048575;28;20409;-71
2021/08/28 09:23:24;;;;;;;2.90;1.10;;;;;;;25.31;44.18;100995.06;5048458;28;20110;-72
2021/08/28 09:25:54;;;;;;;2.60;1.33;;;;;;;25.80;43.36;100994.72;5048115;28;20045;-72
2021/08/28 09:28:34;;;;;;;2.85;1.35;;;;;;;26.18;42.28;100988.50;5048577;28;20075;-72
2021/08/28 09:31:02;;;;;;;1.98;1.17;;;;;;;26.45;41.76;100996.94;5048422;28;20509;-72
2021/08/28 09:33:34;;;;;;;1.80;0.90;;;;;;;26.63;41.27;100996.59;5048766;28;20114;-71
2021/08/28 09:36:02;;;;;;;3.45;1.38;;;;;;;26.86;40.92;101000.00;5043134;28;20057;-73
2021/08/28 09:38:38;;;;;;;2.65;1.10;;;;;;;27.03;40.04;100984.47;5028698;28;20045;-73
2021/08/28 09:41:05;;;;;;;2.47;1.02;;;;;;;27.25;39.95;100987.19;5028368;28;20448;-73
2021/08/28 09:43:32;;;;;;;1.60;1.00;;;;;;;27.41;39.43;100994.19;5028771;28;20487;-72
2021/08/28 09:46:07;;;;;;;2.30;0.90;;;;;;;27.57;38.92;100990.41;5028299;28;20551;-72
2021/08/28 09:48:36;;;;;;;1.70;0.90;;;;;;;27.73;38.25;100983.09;5028715;28;20053;-72
2021/08/28 09:51:02;;;;;;;1.42;0.88;;;;;;;27.90;37.80;100980.94;5028477;28;20052;-72
2021/08/28 09:53:41;;;;;;;1.25;0.90;;;;;;;28.05;36.94;100970.91;5028291;28;20490;-71
2021/08/28 09:56:09;;;;;;;1.50;0.93;;;;;;;28.21;36.99;100967.06;5028578;28;20076;-71
2021/08/28 09:58:40;;;;;;;1.67;1.05;;;;;;;28.44;36.03;100960.53;5028639;28;20065;-72
2021/08/28 10:01:07;;;;;;;1.63;0.98;;;;;;;28.46;36.22;100958.47;5028499;28;20069;-72
2021/08/28 10:03:34;;;;;;;1.52;0.80;;;;;;;28.70;35.14;100959.00;5028466;28;20047;-72
2021/08/28 10:06:02;;;;;;;3.08;0.85;;;;;;;28.83;35.23;100945.56;5028258;28;20053;-72
2021/08/28 10:08:30;;;;;;;1.45;0.80;;;;;;;28.96;34.55;100953.72;5028343;28;20133;-71
2021/08/28 10:10:59;;;;;;;1.02;0.90;;;;;;;29.09;34.10;100944.81;5027930;28;20060;-70
2021/08/28 10:13:32;;;;;;;1.50;0.80;;;;;;;29.03;33.60;100933.97;5028321;28;20057;-71
2021/08/28 10:15:59;;;;;;;0.90;0.60;;;;;;;29.18;32.85;100931.94;5028350;28;20049;-71
2021/08/28 10:18:28;;;;;;;1.52;0.70;;;;;;;29.34;32.43;100930.72;5028386;28;20050;-72
2021/08/28 10:20:59;;;;;;;0.93;0.63;;;;;;;29.54;32.28;100928.03;5028259;28;20045;-72
2021/08/28 10:23:28;;;;;;;0.90;0.77;;;;;;;29.69;31.65;100924.25;5028723;28;20103;-71
2021/08/28 10:25:55;;;;;;;1.80;0.88;;;;;;;29.78;31.49;100918.44;5028364;28;20095;-71
2021/08/28 10:28:22;;;;;;;1.35;0.60;;;;;;;29.87;30.90;100918.22;5028338;28;20103;-72
2021/08/28 10:30:49;;;;;;;1.05;0.60;;;;;;;29.95;30.93;100918.00;5028333;28;20060;-70
2021/08/28 10:33:16;;;;;;;1.02;0.77;;;;;;;29.87;30.28;100910.91;5031688;28;20053;-71
2021/08/28 10:35:43;;;;;;;1.08;0.73;;;;;;;30.12;30.08;100911.09;5031597;28;20100;-72
2021/08/28 10:38:11;;;;;;;1.23;0.88;;;;;;;30.29;29.82;100908.75;5031439;28;20128;-71
2021/08/28 10:40:40;;;;;;;1.10;0.70;;;;;;;30.37;29.72;100899.56;5031624;28;20112;-71
2021/08/28 10:43:09;;;;;;;1.05;0.50;;;;;;;30.45;29.38;100888.47;5031623;28;20099;-72
2021/08/28 10:45:38;;;;;;;1.17;0.60;;;;;;;30.51;28.68;100889.50;5031949;28;20045;-71
2021/08/28 10:48:08;;;;;;;1.63;0.98;;;;;;;30.59;27.94;100883.84;5031632;28;20418;-72
2021/08/28 10:50:38;;;;;;;0.90;0.70;;;;;;;30.65;28.26;100884.03;5031483;28;20072;-71
2021/08/28 10:53:06;;;;;;;1.08;0.60;;;;;;;30.72;27.82;100896.50;5031243;28;20049;-71
2021/08/28 10:55:38;;;;;;;0.93;0.63;;;;;;;30.73;26.96;100890.03;5031161;28;20559;-71
2021/08/28 10:58:22;;;;;;;1.20;0.60;;;;;;;30.89;26.64;100888.69;5031351;28;20272;-73
2021/08/28 11:00:52;;;;;;;0.67;0.50;;;;;;;31.02;26.78;100884.19;5031181;28;20077;-72
2021/08/28 11:03:35;;;;;;;0.80;0.50;;;;;;;31.12;26.73;100886.47;5031090;28;20120;-71
2021/08/28 11:06:19;;;;;;;1.00;0.60;;;;;;;31.25;26.50;100891.78;5031318;28;20253;-71
2021/08/28 11:08:49;;;;;;;0.93;0.80;;;;;;;31.29;25.89;100889.44;5031048;28;20045;-72
2021/08/28 11:11:31;;;;;;;0.90;0.70;;;;;;;31.35;25.50;100881.28;5030800;28;20596;-72
2021/08/28 11:14:00;;;;;;;3.22;1.90;;;;;;;31.45;25.42;100886.19;5031139;28;20096;-71
2021/08/28 11:16:39;;;;;;;0.95;0.60;;;;;;;31.54;25.43;100879.44;5031062;28;20486;-72
2021/08/28 11:19:10;;;;;;;0.98;0.70;;;;;;;31.57;25.64;100880.88;5030872;28;20522;-73
2021/08/28 11:21:44;;;;;;;1.13;0.50;;;;;;;31.66;24.72;100887.69;5031325;28;20052;-73
2021/08/28 11:24:23;;;;;;;0.70;0.40;;;;;;;31.68;24.61;100880.16;5030881;28;20049;-72
2021/08/28 11:26:52;;;;;;;0.85;0.60;;;;;;;31.79;24.47;100885.91;5030852;28;20057;-72
2021/08/28 11:29:21;;;;;;;1.30;0.52;;;;;;;31.78;24.37;100893.19;5030686;28;20476;-72